F/V Anna Mamm Mari — FOHD — position and weather

sailwx.info

Track history (hours):
 
Tides and Currents Weather Stations Pressure Air Temp Water Temp Dewpoint Dewpoint Depression Visibility Wind Speed Wind Dir Waves Ship Positions

F/V Anna Mamm Mari

Last reported at 2014-Jul-22 03:30 UTC. Time now 2014-Jul-22 09:23 UTC.
Position N 46°03' W 001°34'.

Length 17 m.

Type: Fishing. MMSI: 228393000.

Date/timePositionNaut miles runAvg speedWind from/ knotsBaromVisibWave heightAir tempDewpointWater temp
2014-Jul-22 03:30N 46°03' W 001°34'1 1.3
2014-Jul-22 02:29N 46°02' W 001°33'16 1.6
2014-Jul-21 16:33N 46°17' W 001°41'9 8.8
2014-Jul-21 15:33N 46°25' W 001°46'  
2014-Jul-18 01:29N 46°05' W 001°35'3 3.0
2014-Jul-18 00:19N 46°07' W 001°39'6 6.6
2014-Jul-17 23:28N 46°13' W 001°41'6 6.7
2014-Jul-17 22:33N 46°19' W 001°43'7 7.3
2014-Jul-17 21:33N 46°26' W 001°46'4 4.2
2014-Jul-17 20:33N 46°30' W 001°47'0 0.1
2014-Jul-17 19:33N 46°30' W 001°47'2 2.4
2014-Jul-17 18:33N 46°28' W 001°47'9 8.5
2014-Jul-17 17:33N 46°20' W 001°41'9 9.1
2014-Jul-17 16:33N 46°12' W 001°36'5 5.4
2014-Jul-17 15:33N 46°07' W 001°33'4 0.7
2014-Jul-17 09:27N 46°03' W 001°36'2 0.9
2014-Jul-17 07:31N 46°02' W 001°35'1 0.1
2014-Jul-17 01:18N 46°01' W 001°36'0 0.1
2014-Jul-16 23:32N 46°01' W 001°36'0 0.0
2014-Jul-16 22:28N 46°01' W 001°36'2 0.1
2014-Jul-16 05:31N 46°02' W 001°38'19 3.0
2014-Jul-15 23:25N 46°20' W 001°46'6 7.1
2014-Jul-15 22:33N 46°26' W 001°46'4 3.7
2014-Jul-15 21:33N 46°30' W 001°47'3 3.0
2014-Jul-15 20:33N 46°27' W 001°46'9 8.7
2014-Jul-15 19:33N 46°19' W 001°43'9 8.6
2014-Jul-15 18:33N 46°10' W 001°40'8 7.8
2014-Jul-15 17:29N 46°02' W 001°36'1 0.6
2014-Jul-15 15:19N 46°03' W 001°38'2 0.6
2014-Jul-15 11:30N 46°04' W 001°40'0 0.3
2014-Jul-15 10:25N 46°04' W 001°41'2 1.4
2014-Jul-15 09:22N 46°05' W 001°39'13 0.3
2014-Jul-13 13:33N 46°15' W 001°50'8 8.3
2014-Jul-13 12:33N 46°23' W 001°54'2 2.1
2014-Jul-13 11:33N 46°25' W 001°55'1 1.3
2014-Jul-13 10:33N 46°26' W 001°55'2 2.4
2014-Jul-13 09:33N 46°24' W 001°54'0 0.2
2014-Jul-13 08:33N 46°24' W 001°54'1 1.0
2014-Jul-13 07:33N 46°25' W 001°55'2 1.8
2014-Jul-13 06:33N 46°27' W 001°55'2 1.9
2014-Jul-13 05:33N 46°25' W 001°54'2 1.8
2014-Jul-13 04:34N 46°24' W 001°53'2 2.1
2014-Jul-13 03:34N 46°26' W 001°54'1 0.7
2014-Jul-13 02:33N 46°26' W 001°54'0 0.0
2014-Jul-13 01:33N 46°26' W 001°54'0 0.0
2014-Jul-13 00:33N 46°26' W 001°54'0 0.0
2014-Jul-12 23:33N 46°26' W 001°54'0 0.0
2014-Jul-12 22:33N 46°26' W 001°54'0 0.0
2014-Jul-12 21:33N 46°26' W 001°54'0 0.0
2014-Jul-12 20:33N 46°26' W 001°54'0 0.0
2014-Jul-12 19:33N 46°26' W 001°54'0 0.0
2014-Jul-12 18:33N 46°26' W 001°54'0 0.0
2014-Jul-12 17:33N 46°26' W 001°54'0 0.1
2014-Jul-12 16:33N 46°26' W 001°54'1 1.0
2014-Jul-12 15:33N 46°27' W 001°55'0 0.3
2014-Jul-12 14:33N 46°27' W 001°56'4 3.6
2014-Jul-12 13:33N 46°24' W 001°52'4 3.9
2014-Jul-12 12:33N 46°27' W 001°48'3 3.2
2014-Jul-12 11:33N 46°30' W 001°47'0 0.1
2014-Jul-12 10:33N 46°30' W 001°47'  
Track history (hours):
 
Tides and Currents Weather Stations Pressure Air Temp Water Temp Dewpoint Dewpoint Depression Visibility Wind Speed Wind Dir Waves Ship Positions

F/V Anna Mamm Mari

Last reported at 2014-Jul-22 03:30 UTC. Time now 2014-Jul-22 09:23 UTC.
Position N 46°03' W 001°34'.

Length 17 m.

Type: Fishing. MMSI: 228393000.

Date/timePositionNaut miles runAvg speedWind from/ knotsBaromVisibWave heightAir tempDewpointWater temp
2014-Jul-22 03:30N 46°03' W 001°34'1 1.3
2014-Jul-22 02:29N 46°02' W 001°33'16 1.6
2014-Jul-21 16:33N 46°17' W 001°41'9 8.8
2014-Jul-21 15:33N 46°25' W 001°46'  
2014-Jul-18 01:29N 46°05' W 001°35'3 3.0
2014-Jul-18 00:19N 46°07' W 001°39'6 6.6
2014-Jul-17 23:28N 46°13' W 001°41'6 6.7
2014-Jul-17 22:33N 46°19' W 001°43'7 7.3
2014-Jul-17 21:33N 46°26' W 001°46'4 4.2
2014-Jul-17 20:33N 46°30' W 001°47'0 0.1
2014-Jul-17 19:33N 46°30' W 001°47'2 2.4
2014-Jul-17 18:33N 46°28' W 001°47'9 8.5
2014-Jul-17 17:33N 46°20' W 001°41'9 9.1
2014-Jul-17 16:33N 46°12' W 001°36'5 5.4
2014-Jul-17 15:33N 46°07' W 001°33'4 0.7
2014-Jul-17 09:27N 46°03' W 001°36'2 0.9
2014-Jul-17 07:31N 46°02' W 001°35'1 0.1
2014-Jul-17 01:18N 46°01' W 001°36'0 0.1
2014-Jul-16 23:32N 46°01' W 001°36'0 0.0
2014-Jul-16 22:28N 46°01' W 001°36'2 0.1
2014-Jul-16 05:31N 46°02' W 001°38'19 3.0
2014-Jul-15 23:25N 46°20' W 001°46'6 7.1
2014-Jul-15 22:33N 46°26' W 001°46'4 3.7
2014-Jul-15 21:33N 46°30' W 001°47'3 3.0
2014-Jul-15 20:33N 46°27' W 001°46'9 8.7
2014-Jul-15 19:33N 46°19' W 001°43'9 8.6
2014-Jul-15 18:33N 46°10' W 001°40'8 7.8
2014-Jul-15 17:29N 46°02' W 001°36'1 0.6
2014-Jul-15 15:19N 46°03' W 001°38'2 0.6
2014-Jul-15 11:30N 46°04' W 001°40'0 0.3
2014-Jul-15 10:25N 46°04' W 001°41'2 1.4
2014-Jul-15 09:22N 46°05' W 001°39'13 0.3
2014-Jul-13 13:33N 46°15' W 001°50'8 8.3
2014-Jul-13 12:33N 46°23' W 001°54'2 2.1
2014-Jul-13 11:33N 46°25' W 001°55'1 1.3
2014-Jul-13 10:33N 46°26' W 001°55'2 2.4
2014-Jul-13 09:33N 46°24' W 001°54'0 0.2
2014-Jul-13 08:33N 46°24' W 001°54'1 1.0
2014-Jul-13 07:33N 46°25' W 001°55'2 1.8
2014-Jul-13 06:33N 46°27' W 001°55'2 1.9
2014-Jul-13 05:33N 46°25' W 001°54'2 1.8
2014-Jul-13 04:34N 46°24' W 001°53'2 2.1
2014-Jul-13 03:34N 46°26' W 001°54'1 0.7
2014-Jul-13 02:33N 46°26' W 001°54'0 0.0
2014-Jul-13 01:33N 46°26' W 001°54'0 0.0
2014-Jul-13 00:33N 46°26' W 001°54'0 0.0
2014-Jul-12 23:33N 46°26' W 001°54'0 0.0
2014-Jul-12 22:33N 46°26' W 001°54'0 0.0
2014-Jul-12 21:33N 46°26' W 001°54'0 0.0
2014-Jul-12 20:33N 46°26' W 001°54'0 0.0
2014-Jul-12 19:33N 46°26' W 001°54'0 0.0
2014-Jul-12 18:33N 46°26' W 001°54'0 0.0
2014-Jul-12 17:33N 46°26' W 001°54'0 0.1
2014-Jul-12 16:33N 46°26' W 001°54'1 1.0
2014-Jul-12 15:33N 46°27' W 001°55'0 0.3
2014-Jul-12 14:33N 46°27' W 001°56'4 3.6
2014-Jul-12 13:33N 46°24' W 001°52'4 3.9
2014-Jul-12 12:33N 46°27' W 001°48'3 3.2
2014-Jul-12 11:33N 46°30' W 001°47'0 0.1
2014-Jul-12 10:33N 46°30' W 001°47'  

Dump ship's entire track history